Terminal Aerodrome Forecast
Issued by NWS Pittsburgh, PA

Current Version | Previous Version | Graphics & Text | Print | Product List | Glossary On
Versions: 1 2 3 4 5 6 7 8 9 10 11 12 13 14 15 16 17 18 19 20 21 22 23 24 25 26 27
000
FTUS41 KPBZ 272055 AAA
TAFPIT
TAF AMD
KPIT 272055Z 2721/2824 20010KT P6SM SCT045 SCT060 BKN250
     FM280300 21006KT P6SM VCSH OVC040
     FM280800 26006KT P6SM BKN025
     FM281400 31006KT P6SM SCT040=

USA.gov is the U.S. government's official web portal to all federal, state and local government web resources and services.